Time;durP1;ratioP1;P1;durP2;ratioP2;P2;SDS_P1;SDS_P2;PMS_P1;PMS_P2;Temp;Humidity;BMP_temperature;BMP_pressure;BME280_temperature;BME280_humidity;BME280_pressure;Samples;Min_cycle;Max_cycle;Signal;HPM_P1;HPM_P2
2022/07/25 00:00:34;;;;;;;10.50;6.63;;;;;;;;;;4973950;28;20147;-77
2022/07/25 00:03:00;;;;;;;15.55;9.32;;;;;;;;;;4988663;28;20027;-76
2022/07/25 00:05:25;;;;;;;8.27;7.25;;;;;;;;;;5000108;28;20035;-77
2022/07/25 00:07:51;;;;;;;15.35;8.85;;;;;;;;;;4972885;28;20062;-77
2022/07/25 00:10:16;;;;;;;10.65;7.53;;;;;;;;;;5000289;28;20464;-77
2022/07/25 00:12:42;;;;;;;9.93;7.75;;;;;;;;;;4971714;28;20027;-76
2022/07/25 00:15:07;;;;;;;8.50;7.18;;;;;;;;;;4995390;28;20065;-77
2022/07/25 00:17:33;;;;;;;9.50;7.38;;;;;;;;;;4959211;28;20451;-77
2022/07/25 00:19:58;;;;;;;17.55;7.68;;;;;;;;;;4979933;28;20047;-76
2022/07/25 00:22:24;;;;;;;13.70;7.93;;;;;;;;;;4974119;28;20072;-76
2022/07/25 00:24:49;;;;;;;10.70;8.18;;;;;;;;;;4992108;28;20495;-77
2022/07/25 00:27:14;;;;;;;11.77;8.27;;;;;;;;;;4974451;28;20080;-76
2022/07/25 00:29:40;;;;;;;11.15;7.95;;;;;;;;;;4978173;28;20030;-76
2022/07/25 00:32:05;;;;;;;10.55;8.40;;;;;;;;;;4979468;28;20038;-76
2022/07/25 00:34:31;;;;;;;10.48;8.15;;;;;;;;;;4974090;28;20400;-76
2022/07/25 00:36:56;;;;;;;10.25;7.80;;;;;;;;;;4974421;28;20038;-75
2022/07/25 00:39:22;;;;;;;9.55;7.57;;;;;;;;;;4991057;28;20030;-76
2022/07/25 00:41:47;;;;;;;11.07;7.70;;;;;;;;;;4973919;28;20073;-76
2022/07/25 00:44:22;;;;;;;10.02;7.03;;;;;;;;;;4991249;28;20041;-77
2022/07/25 00:46:47;;;;;;;7.97;6.90;;;;;;;;;;4990802;28;20113;-77
2022/07/25 00:49:12;;;;;;;10.27;7.28;;;;;;;;;;4991898;28;20109;-76
2022/07/25 00:51:38;;;;;;;11.27;7.65;;;;;;;;;;4992831;28;20035;-76
2022/07/25 00:54:03;;;;;;;9.15;6.53;;;;;;;;;;5010966;28;20042;-76
2022/07/25 00:56:29;;;;;;;8.43;6.63;;;;;;;;;;5005107;28;20033;-76
2022/07/25 00:58:54;;;;;;;8.05;5.85;;;;;;;;;;4993552;28;20523;-77
2022/07/25 01:01:20;;;;;;;7.45;6.18;;;;;;;;;;4995878;28;20038;-76
2022/07/25 01:03:45;;;;;;;6.78;5.95;;;;;;;;;;4990693;28;20033;-76
2022/07/25 01:06:11;;;;;;;7.35;6.15;;;;;;;;;;5006398;28;20101;-76
2022/07/25 01:08:36;;;;;;;7.65;6.22;;;;;;;;;;4993872;28;20105;-76
2022/07/25 01:11:01;;;;;;;8.02;6.43;;;;;;;;;;5010432;28;20117;-76
2022/07/25 01:13:27;;;;;;;9.25;6.60;;;;;;;;;;4995674;28;20026;-76
2022/07/25 01:15:52;;;;;;;6.88;6.10;;;;;;;;;;5014863;28;20034;-76
2022/07/25 01:18:18;;;;;;;9.85;7.63;;;;;;;;;;5025887;28;20408;-78
2022/07/25 01:20:43;;;;;;;8.70;6.68;;;;;;;;;;5016286;28;20519;-75
2022/07/25 01:23:09;;;;;;;9.55;6.78;;;;;;;;;;5006386;28;20060;-77
2022/07/25 01:25:34;;;;;;;9.40;6.63;;;;;;;;;;5014916;28;20030;-77
2022/07/25 01:28:00;;;;;;;10.02;6.50;;;;;;;;;;5013306;28;20112;-76
2022/07/25 01:30:25;;;;;;;9.10;6.75;;;;;;;;;;4967727;28;20061;-76
2022/07/25 01:32:51;;;;;;;10.80;6.35;;;;;;;;;;5013553;28;20042;-77
2022/07/25 01:35:16;;;;;;;7.13;6.43;;;;;;;;;;5012739;28;20034;-77
2022/07/25 01:37:41;;;;;;;6.85;6.15;;;;;;;;;;5006418;28;20152;-77
2022/07/25 01:40:07;;;;;;;8.52;5.80;;;;;;;;;;4991820;28;20288;-77
2022/07/25 01:42:33;;;;;;;7.03;5.90;;;;;;;;;;5013057;28;20026;-77
2022/07/25 01:44:58;;;;;;;8.35;6.53;;;;;;;;;;4997153;28;20038;-77
2022/07/25 01:47:24;;;;;;;7.35;6.22;;;;;;;;;;4996141;28;20451;-77
2022/07/25 01:49:49;;;;;;;6.95;6.25;;;;;;;;;;4980798;28;20480;-78
2022/07/25 01:52:15;;;;;;;6.63;5.88;;;;;;;;;;5013303;28;20133;-77
2022/07/25 01:54:40;;;;;;;7.72;6.93;;;;;;;;;;5014022;28;20042;-76
2022/07/25 01:57:06;;;;;;;6.95;6.13;;;;;;;;;;4996441;28;20082;-77
2022/07/25 01:59:31;;;;;;;8.82;6.35;;;;;;;;;;5012972;28;20038;-77
2022/07/25 02:01:57;;;;;;;8.45;6.45;;;;;;;;;;5011965;28;20121;-76
2022/07/25 02:04:22;;;;;;;7.88;6.30;;;;;;;;;;5014410;28;20030;-77
2022/07/25 02:06:48;;;;;;;8.30;6.63;;;;;;;;;;4979822;28;20076;-77
2022/07/25 02:09:13;;;;;;;9.30;6.47;;;;;;;;;;5013667;28;20042;-77
2022/07/25 02:11:39;;;;;;;7.50;6.43;;;;;;;;;;5011730;28;20037;-78
2022/07/25 02:14:04;;;;;;;9.30;6.55;;;;;;;;;;5012878;28;20434;-77
2022/07/25 02:16:30;;;;;;;7.55;6.75;;;;;;;;;;5028021;28;20045;-78
2022/07/25 02:18:55;;;;;;;8.95;6.18;;;;;;;;;;5013077;28;20029;-77
2022/07/25 02:21:21;;;;;;;11.95;7.63;;;;;;;;;;5011629;28;20037;-77
2022/07/25 02:23:46;;;;;;;8.50;6.63;;;;;;;;;;5007808;28;20041;-77
2022/07/25 02:26:12;;;;;;;7.28;6.25;;;;;;;;;;4994512;28;20101;-77
2022/07/25 02:28:37;;;;;;;9.05;6.55;;;;;;;;;;5008368;28;20037;-77
2022/07/25 02:31:02;;;;;;;7.50;6.20;;;;;;;;;;4995697;28;20065;-76
2022/07/25 02:33:28;;;;;;;7.68;6.72;;;;;;;;;;4996556;28;20040;-76
2022/07/25 02:35:54;;;;;;;7.93;7.07;;;;;;;;;;4995366;28;20105;-76
2022/07/25 02:38:19;;;;;;;9.05;6.72;;;;;;;;;;4992130;28;20042;-76
2022/07/25 02:40:48;;;;;;;8.10;6.63;;;;;;;;;;4987033;28;20034;-77
2022/07/25 02:43:13;;;;;;;9.82;6.63;;;;;;;;;;4987954;28;20035;-77
2022/07/25 02:45:39;;;;;;;7.97;6.53;;;;;;;;;;4987670;28;20153;-77
2022/07/25 02:48:04;;;;;;;8.35;6.13;;;;;;;;;;5005993;28;20077;-76
2022/07/25 02:50:30;;;;;;;10.50;5.82;;;;;;;;;;5010476;28;20449;-77
2022/07/25 02:52:55;;;;;;;6.72;5.60;;;;;;;;;;4988531;28;20509;-76
2022/07/25 02:55:21;;;;;;;8.90;6.60;;;;;;;;;;4974877;28;20090;-76
2022/07/25 02:57:46;;;;;;;8.52;6.95;;;;;;;;;;4973979;28;20026;-77
2022/07/25 03:00:12;;;;;;;7.72;6.60;;;;;;;;;;4974347;28;20402;-76
2022/07/25 03:02:37;;;;;;;8.02;6.20;;;;;;;;;;4957675;28;20047;-76
2022/07/25 03:05:07;;;;;;;7.32;6.28;;;;;;;;;;4958871;28;20143;-76
2022/07/25 03:07:32;;;;;;;9.80;8.02;;;;;;;;;;4974443;28;20489;-76
2022/07/25 03:09:58;;;;;;;9.30;6.72;;;;;;;;;;4976174;28;20182;-77
2022/07/25 03:12:23;;;;;;;8.45;6.47;;;;;;;;;;4977353;28;20401;-76
2022/07/25 03:14:49;;;;;;;8.05;7.20;;;;;;;;;;4975973;28;20038;-76
2022/07/25 03:17:14;;;;;;;8.23;6.30;;;;;;;;;;4975843;28;20038;-76
2022/07/25 03:19:40;;;;;;;8.13;6.45;;;;;;;;;;4976266;28;20042;-77
2022/07/25 03:22:05;;;;;;;10.90;7.22;;;;;;;;;;4964493;28;20408;-76
2022/07/25 03:24:31;;;;;;;9.13;6.07;;;;;;;;;;4975449;28;20082;-77
2022/07/25 03:26:56;;;;;;;11.40;7.43;;;;;;;;;;4993142;28;20063;-76
2022/07/25 03:29:22;;;;;;;7.55;6.78;;;;;;;;;;4960942;28;20034;-77
2022/07/25 03:31:47;;;;;;;8.35;7.10;;;;;;;;;;4972112;28;20039;-76
2022/07/25 03:34:12;;;;;;;8.82;5.90;;;;;;;;;;4960533;28;20035;-77
2022/07/25 03:36:38;;;;;;;9.60;7.20;;;;;;;;;;4976045;28;20031;-77
2022/07/25 03:39:03;;;;;;;7.20;6.50;;;;;;;;;;4960802;28;20034;-77
2022/07/25 03:41:29;;;;;;;8.60;6.50;;;;;;;;;;4974148;28;20524;-77
2022/07/25 03:43:54;;;;;;;9.15;6.95;;;;;;;;;;4970012;28;20382;-77
2022/07/25 03:46:20;;;;;;;8.73;6.70;;;;;;;;;;4976111;28;20034;-78
2022/07/25 03:48:45;;;;;;;7.82;6.40;;;;;;;;;;4958678;28;20504;-76
2022/07/25 03:51:10;;;;;;;7.03;6.32;;;;;;;;;;4949889;28;20042;-77
2022/07/25 03:54:00;;;;;;;8.43;6.43;;;;;;;;;;4975851;28;20598;-78
2022/07/25 03:56:21;;;;;;;11.88;6.55;;;;;;;;;;4988855;28;20022;-77
2022/07/25 03:58:47;;;;;;;8.85;5.78;;;;;;;;;;4968933;28;20444;-76
2022/07/25 04:01:12;;;;;;;8.05;5.53;;;;;;;;;;4963432;28;20035;-76
2022/07/25 04:03:37;;;;;;;8.10;5.60;;;;;;;;;;4973267;28;20143;-78
2022/07/25 04:06:03;;;;;;;7.88;5.75;;;;;;;;;;4973214;28;20027;-78
2022/07/25 04:08:29;;;;;;;6.55;5.30;;;;;;;;;;4973346;28;20077;-76
2022/07/25 04:10:54;;;;;;;6.95;6.25;;;;;;;;;;4981028;28;20039;-76
2022/07/25 04:13:19;;;;;;;6.07;5.30;;;;;;;;;;4972198;28;20089;-76
2022/07/25 04:15:45;;;;;;;7.38;5.60;;;;;;;;;;4945472;28;20043;-77
2022/07/25 04:18:10;;;;;;;7.60;5.40;;;;;;;;;;4971122;28;20053;-77
2022/07/25 04:20:36;;;;;;;6.32;5.35;;;;;;;;;;4945493;28;20042;-77
2022/07/25 04:23:01;;;;;;;6.43;4.97;;;;;;;;;;4979586;28;20061;-78
2022/07/25 04:25:27;;;;;;;6.25;5.00;;;;;;;;;;4967175;28;20417;-76
2022/07/25 04:27:52;;;;;;;6.80;4.40;;;;;;;;;;4992961;28;20058;-77
2022/07/25 04:30:18;;;;;;;5.05;4.53;;;;;;;;;;4956287;28;20049;-77
2022/07/25 04:32:43;;;;;;;4.15;3.75;;;;;;;;;;4956104;28;20117;-76
2022/07/25 04:35:09;;;;;;;5.82;4.43;;;;;;;;;;4962830;28;20031;-77
2022/07/25 04:37:36;;;;;;;7.75;4.47;;;;;;;;;;4974920;28;20062;-79
2022/07/25 04:40:02;;;;;;;10.27;4.53;;;;;;;;;;4961513;28;20049;-77
2022/07/25 04:42:27;;;;;;;4.70;3.60;;;;;;;;;;4968133;28;20026;-78
2022/07/25 04:44:53;;;;;;;7.43;4.03;;;;;;;;;;4977511;28;20031;-78
2022/07/25 04:47:18;;;;;;;5.28;3.50;;;;;;;;;;4956784;28;20034;-79
2022/07/25 04:49:44;;;;;;;6.05;3.53;;;;;;;;;;4960360;28;20122;-78
2022/07/25 04:52:09;;;;;;;9.32;3.70;;;;;;;;;;4983349;28;20050;-78
2022/07/25 04:54:35;;;;;;;4.28;3.88;;;;;;;;;;5002188;28;20041;-77
2022/07/25 04:57:00;;;;;;;7.38;4.10;;;;;;;;;;5015028;28;20022;-78
2022/07/25 04:59:25;;;;;;;6.88;3.70;;;;;;;;;;4996495;28;20575;-77
2022/07/25 05:01:51;;;;;;;5.88;3.95;;;;;;;;;;4992363;28;20057;-78
2022/07/25 05:04:16;;;;;;;5.28;4.00;;;;;;;;;;4995313;28;20477;-78
2022/07/25 05:06:42;;;;;;;5.57;4.25;;;;;;;;;;4997323;28;20113;-77
2022/07/25 05:09:07;;;;;;;4.32;3.10;;;;;;;;;;5003051;28;20042;-78
2022/07/25 05:11:33;;;;;;;4.90;2.90;;;;;;;;;;5015882;28;20057;-76
2022/07/25 05:13:58;;;;;;;3.72;2.85;;;;;;;;;;4991875;28;20034;-77
2022/07/25 05:16:24;;;;;;;4.90;2.92;;;;;;;;;;5008209;28;20018;-77
2022/07/25 05:18:50;;;;;;;6.50;3.20;;;;;;;;;;4975366;28;20084;-78
2022/07/25 05:21:15;;;;;;;5.55;3.00;;;;;;;;;;4972354;28;20117;-78
2022/07/25 05:23:41;;;;;;;4.50;3.10;;;;;;;;;;5013412;28;20084;-78
2022/07/25 05:26:06;;;;;;;5.30;2.75;;;;;;;;;;4998455;28;20045;-77
2022/07/25 05:28:31;;;;;;;4.55;2.72;;;;;;;;;;4984810;28;20037;-77
2022/07/25 05:30:57;;;;;;;4.25;2.47;;;;;;;;;;5004122;28;20664;-77
2022/07/25 05:33:54;;;;;;;4.03;2.83;;;;;;;;;;4996585;28;20572;-77
2022/07/25 05:36:19;;;;;;;5.75;3.15;;;;;;;;;;4978494;28;20117;-78
2022/07/25 05:38:45;;;;;;;5.07;3.03;;;;;;;;;;4987717;28;20049;-77
2022/07/25 05:41:10;;;;;;;5.78;3.45;;;;;;;;;;4989943;28;20144;-78
2022/07/25 05:43:36;;;;;;;8.13;3.33;;;;;;;;;;4976235;28;20045;-77
2022/07/25 05:46:02;;;;;;;5.05;3.40;;;;;;;;;;4992577;28;20026;-77
2022/07/25 05:48:27;;;;;;;8.70;3.60;;;;;;;;;;4997966;28;20076;-77
2022/07/25 05:50:53;;;;;;;6.18;4.18;;;;;;;;;;4966559;28;20026;-77
2022/07/25 05:53:18;;;;;;;6.18;3.60;;;;;;;;;;4998388;28;20536;-76
2022/07/25 05:55:44;;;;;;;6.32;3.60;;;;;;;;;;4982811;28;20053;-78
2022/07/25 05:58:09;;;;;;;5.07;3.25;;;;;;;;;;4980392;28;20118;-79
2022/07/25 06:00:35;;;;;;;4.00;3.13;;;;;;;;;;4996001;28;20030;-78
2022/07/25 06:03:00;;;;;;;4.80;3.05;;;;;;;;;;4997148;28;20504;-78
2022/07/25 06:05:26;;;;;;;7.40;3.00;;;;;;;;;;4964680;28;20057;-78
2022/07/25 06:07:51;;;;;;;4.35;3.08;;;;;;;;;;4993883;28;20034;-77
2022/07/25 06:10:16;;;;;;;3.90;3.20;;;;;;;;;;4993655;28;20046;-78
2022/07/25 06:12:42;;;;;;;6.32;3.55;;;;;;;;;;4993939;28;20089;-78
2022/07/25 06:15:08;;;;;;;4.28;3.53;;;;;;;;;;4993633;28;20034;-78
2022/07/25 06:17:33;;;;;;;5.10;4.28;;;;;;;;;;4993571;28;20030;-78
2022/07/25 06:19:59;;;;;;;5.20;3.30;;;;;;;;;;4977229;28;20030;-77
2022/07/25 06:22:24;;;;;;;4.20;2.90;;;;;;;;;;5002908;28;20044;-78
2022/07/25 06:24:50;;;;;;;4.68;2.95;;;;;;;;;;5000565;28;20018;-77
2022/07/25 06:27:15;;;;;;;3.78;2.90;;;;;;;;;;4996041;28;20045;-77
2022/07/25 06:29:40;;;;;;;5.45;2.67;;;;;;;;;;4981415;28;20026;-77
2022/07/25 06:32:06;;;;;;;4.78;2.78;;;;;;;;;;4994723;28;20073;-78
2022/07/25 06:34:31;;;;;;;3.50;2.80;;;;;;;;;;4977517;28;20093;-79
2022/07/25 06:36:57;;;;;;;4.82;3.13;;;;;;;;;;4995376;28;20062;-77
2022/07/25 06:39:23;;;;;;;4.38;3.67;;;;;;;;;;4995108;28;20027;-79
2022/07/25 06:41:50;;;;;;;4.55;3.83;;;;;;;;;;4994632;28;20397;-78
2022/07/25 06:44:16;;;;;;;3.97;3.22;;;;;;;;;;4976783;28;20038;-78
2022/07/25 06:46:41;;;;;;;3.20;2.67;;;;;;;;;;4994200;28;20045;-78
2022/07/25 06:49:07;;;;;;;4.22;2.55;;;;;;;;;;4993063;28;20058;-80
2022/07/25 06:51:32;;;;;;;4.25;2.78;;;;;;;;;;4927815;28;1395063;-78
2022/07/25 06:53:58;;;;;;;3.50;2.53;;;;;;;;;;4957197;28;20134;-78
2022/07/25 06:56:23;;;;;;;3.35;2.70;;;;;;;;;;4967648;28;20039;-78
2022/07/25 06:58:49;;;;;;;4.03;2.58;;;;;;;;;;4955386;28;20027;-77
2022/07/25 07:01:14;;;;;;;3.53;2.47;;;;;;;;;;4954776;28;20034;-80
2022/07/25 07:03:40;;;;;;;4.93;2.67;;;;;;;;;;4966326;28;20029;-78
2022/07/25 07:06:05;;;;;;;4.63;2.72;;;;;;;;;;4955136;28;20039;-77
2022/07/25 07:08:32;;;;;;;5.43;3.58;;;;;;;;;;4968270;28;20035;-78
2022/07/25 07:10:58;;;;;;;4.72;2.72;;;;;;;;;;4956930;28;20089;-78
2022/07/25 07:13:24;;;;;;;5.00;3.08;;;;;;;;;;4952387;28;20414;-77
2022/07/25 07:15:50;;;;;;;4.55;3.05;;;;;;;;;;4974755;28;20031;-78
2022/07/25 07:18:16;;;;;;;3.50;2.75;;;;;;;;;;4942461;28;20393;-78
2022/07/25 07:20:41;;;;;;;4.80;3.47;;;;;;;;;;4955471;28;20047;-79
2022/07/25 07:23:07;;;;;;;3.25;2.33;;;;;;;;;;4982189;28;20022;-78
2022/07/25 07:25:32;;;;;;;5.65;3.63;;;;;;;;;;4945956;28;20486;-78
2022/07/25 07:27:58;;;;;;;4.13;3.17;;;;;;;;;;4961410;28;20046;-78
2022/07/25 07:30:23;;;;;;;3.80;2.50;;;;;;;;;;4962930;28;20038;-78
2022/07/25 07:32:49;;;;;;;3.50;2.50;;;;;;;;;;4955530;28;20510;-78
2022/07/25 07:35:15;;;;;;;3.50;2.67;;;;;;;;;;4955029;28;20043;-77
2022/07/25 07:37:41;;;;;;;3.35;2.50;;;;;;;;;;4969738;28;20030;-79
2022/07/25 07:40:07;;;;;;;3.92;2.38;;;;;;;;;;4974960;28;20039;-78
2022/07/25 07:42:43;;;;;;;3.45;2.45;;;;;;;;;;4975067;28;20041;-77
2022/07/25 07:45:11;;;;;;;3.78;2.90;;;;;;;;;;4974725;28;20529;-78
2022/07/25 07:47:36;;;;;;;4.15;3.10;;;;;;;;;;4957594;28;20045;-77
2022/07/25 07:50:02;;;;;;;5.38;4.45;;;;;;;;;;4966946;28;20043;-82
2022/07/25 07:52:27;;;;;;;3.63;2.70;;;;;;;;;;4961403;28;20154;-78
2022/07/25 07:57:37;;;;;;;4.03;2.50;;;;;;;;;;4988877;28;20118;-78
2022/07/25 08:00:03;;;;;;;3.63;2.47;;;;;;;;;;4973690;28;20118;-78
2022/07/25 08:02:49;;;;;;;3.28;2.40;;;;;;;;;;4941818;28;20051;-78
2022/07/25 08:05:21;;;;;;;3.35;2.65;;;;;;;;;;4966366;28;20047;-77
2022/07/25 08:07:46;;;;;;;3.50;2.67;;;;;;;;;;4944058;29;20094;-78
2022/07/25 08:10:12;;;;;;;3.33;2.65;;;;;;;;;;4953524;28;20054;-78
2022/07/25 08:12:40;;;;;;;4.53;2.55;;;;;;;;;;4952797;28;20150;-77
2022/07/25 08:15:06;;;;;;;2.60;2.30;;;;;;;;;;4955556;28;20062;-77
2022/07/25 08:17:32;;;;;;;3.53;2.03;;;;;;;;;;4972266;28;20378;-80
2022/07/25 08:19:57;;;;;;;2.70;2.10;;;;;;;;;;4975759;28;20126;-80
2022/07/25 08:22:23;;;;;;;2.40;1.80;;;;;;;;;;4942788;28;20047;-79
2022/07/25 08:24:48;;;;;;;3.00;2.00;;;;;;;;;;4974435;28;20027;-78
2022/07/25 08:27:14;;;;;;;2.80;2.30;;;;;;;;;;4956719;28;20040;-77
2022/07/25 08:29:39;;;;;;;2.70;2.20;;;;;;;;;;4957835;28;20125;-78
2022/07/25 08:32:05;;;;;;;2.90;2.20;;;;;;;;;;4952425;29;20027;-78
2022/07/25 08:34:31;;;;;;;2.42;2.13;;;;;;;;;;4975368;28;20173;-78
2022/07/25 08:36:56;;;;;;;3.97;2.40;;;;;;;;;;4980420;28;20030;-79
2022/07/25 08:39:22;;;;;;;3.38;2.38;;;;;;;;;;4980043;28;20022;-78
2022/07/25 08:41:47;;;;;;;4.00;3.60;;;;;;;;;;4980591;28;20104;-78
2022/07/25 08:44:13;;;;;;;4.15;2.45;;;;;;;;;;4979035;28;20027;-78
2022/07/25 08:46:39;;;;;;;5.05;2.70;;;;;;;;;;4980100;28;20088;-78
2022/07/25 08:49:05;;;;;;;2.63;2.10;;;;;;;;;;4979621;28;20030;-78
2022/07/25 08:51:31;;;;;;;2.85;2.20;;;;;;;;;;4984343;28;20042;-79
2022/07/25 08:53:56;;;;;;;2.80;2.10;;;;;;;;;;4996250;28;20046;-79
2022/07/25 08:56:22;;;;;;;2.70;1.85;;;;;;;;;;5012688;28;20030;-78
2022/07/25 08:58:48;;;;;;;2.90;1.92;;;;;;;;;;4997748;28;20149;-78
2022/07/25 09:01:13;;;;;;;2.83;2.20;;;;;;;;;;5012460;28;20038;-79
2022/07/25 09:03:39;;;;;;;4.05;2.08;;;;;;;;;;5012532;28;20370;-79
2022/07/25 09:06:17;;;;;;;4.10;2.20;;;;;;;;;;4955236;28;20045;-79
2022/07/25 09:08:50;;;;;;;2.35;1.77;;;;;;;;;;5011262;28;20045;-78
2022/07/25 09:11:24;;;;;;;2.78;1.98;;;;;;;;;;4997463;28;20045;-79
2022/07/25 09:13:56;;;;;;;2.40;2.00;;;;;;;;;;5012062;28;20038;-78
2022/07/25 09:16:27;;;;;;;2.60;2.30;;;;;;;;;;4989382;28;20042;-78
2022/07/25 09:18:53;;;;;;;3.03;1.88;;;;;;;;;;4996466;28;20513;-78
2022/07/25 09:21:18;;;;;;;2.63;2.20;;;;;;;;;;4997265;28;20062;-83
2022/07/25 09:23:44;;;;;;;4.25;2.30;;;;;;;;;;5000782;28;20361;-78
2022/07/25 09:26:11;;;;;;;3.45;1.80;;;;;;;;;;5015985;28;20049;-78
2022/07/25 09:28:41;;;;;;;2.40;2.00;;;;;;;;;;4963316;28;20026;-78
2022/07/25 09:31:08;;;;;;;2.10;1.60;;;;;;;;;;5011676;28;20042;-79
2022/07/25 09:33:33;;;;;;;2.50;1.77;;;;;;;;;;4996326;28;20392;-80
2022/07/25 09:36:08;;;;;;;3.22;2.20;;;;;;;;;;4996250;28;20038;-78
2022/07/25 09:38:33;;;;;;;1.98;1.58;;;;;;;;;;5011380;28;20034;-78
2022/07/25 09:41:00;;;;;;;2.38;1.70;;;;;;;;;;4995346;28;20358;-78
2022/07/25 09:43:36;;;;;;;2.35;1.77;;;;;;;;;;4996411;28;20120;-80
2022/07/25 09:46:01;;;;;;;2.00;1.60;;;;;;;;;;4995287;28;20532;-77
2022/07/25 09:48:27;;;;;;;1.92;1.42;;;;;;;;;;5011154;28;20030;-80
2022/07/25 09:50:52;;;;;;;3.33;1.80;;;;;;;;;;5011897;28;20038;-79
2022/07/25 09:53:18;;;;;;;2.13;1.70;;;;;;;;;;4995165;28;20425;-79
2022/07/25 09:55:43;;;;;;;3.22;1.90;;;;;;;;;;4959848;28;20050;-78
2022/07/25 09:58:09;;;;;;;2.30;1.73;;;;;;;;;;4975712;28;20038;-81
2022/07/25 10:00:34;;;;;;;2.13;1.77;;;;;;;;;;4958242;28;20462;-78
2022/07/25 10:03:00;;;;;;;2.30;1.90;;;;;;;;;;4959316;28;20033;-79
2022/07/25 10:05:55;;;;;;;2.28;1.70;;;;;;;;;;4964907;28;20047;-79
2022/07/25 10:08:21;;;;;;;2.50;2.00;;;;;;;;;;4915240;29;20075;-79
2022/07/25 10:10:46;;;;;;;2.67;1.83;;;;;;;;;;4969855;28;20059;-78
2022/07/25 10:13:16;;;;;;;2.45;1.90;;;;;;;;;;4953355;28;20041;-78
2022/07/25 10:15:43;;;;;;;3.30;1.88;;;;;;;;;;4971480;28;20032;-77
2022/07/25 10:18:08;;;;;;;2.40;1.60;;;;;;;;;;4970088;28;20517;-79
2022/07/25 10:20:33;;;;;;;4.75;1.80;;;;;;;;;;4958802;28;20034;-79
2022/07/25 10:22:59;;;;;;;2.60;1.60;;;;;;;;;;4988488;28;20042;-84
2022/07/25 10:25:24;;;;;;;2.05;1.70;;;;;;;;;;4939910;29;20158;-78
2022/07/25 10:27:57;;;;;;;5.40;2.10;;;;;;;;;;4970796;28;20130;-79
2022/07/25 10:30:26;;;;;;;2.85;1.92;;;;;;;;;;4974730;28;20081;-80
2022/07/25 10:32:55;;;;;;;2.83;1.90;;;;;;;;;;4975917;28;20130;-79
2022/07/25 10:35:20;;;;;;;3.67;2.28;;;;;;;;;;4975010;28;20394;-82
2022/07/25 10:37:46;;;;;;;3.05;1.90;;;;;;;;;;4975656;28;20054;-79
2022/07/25 10:40:23;;;;;;;4.90;2.10;;;;;;;;;;4956505;28;20058;-78
2022/07/25 10:42:48;;;;;;;2.65;2.00;;;;;;;;;;4959984;28;20049;-79
2022/07/25 10:45:16;;;;;;;3.47;2.33;;;;;;;;;;4956871;28;20042;-78
2022/07/25 10:47:41;;;;;;;2.90;2.00;;;;;;;;;;4960026;28;20113;-80
2022/07/25 10:50:09;;;;;;;2.25;1.92;;;;;;;;;;4965446;28;20130;-80
2022/07/25 10:52:39;;;;;;;3.45;1.90;;;;;;;;;;4969260;28;20197;-80
2022/07/25 10:55:04;;;;;;;2.85;1.80;;;;;;;;;;4995595;28;20045;-79
2022/07/25 10:57:30;;;;;;;2.95;1.70;;;;;;;;;;4977376;28;20393;-79
2022/07/25 11:00:03;;;;;;;2.30;1.80;;;;;;;;;;4974169;28;20031;-80
2022/07/25 11:02:28;;;;;;;3.15;1.60;;;;;;;;;;4991821;28;20500;-78
2022/07/25 11:04:57;;;;;;;2.65;1.98;;;;;;;;;;4994029;28;20026;-79
2022/07/25 11:07:23;;;;;;;3.03;2.05;;;;;;;;;;4993849;28;20409;-79
2022/07/25 11:09:55;;;;;;;2.55;1.77;;;;;;;;;;5004718;28;20029;-78
2022/07/25 11:12:20;;;;;;;4.72;2.20;;;;;;;;;;4978333;28;20026;-79
2022/07/25 11:14:46;;;;;;;2.53;1.90;;;;;;;;;;4977075;28;20030;-79
2022/07/25 11:17:14;;;;;;;2.30;1.80;;;;;;;;;;4995084;28;20038;-78
2022/07/25 11:19:43;;;;;;;2.33;1.80;;;;;;;;;;4993601;28;20026;-79
2022/07/25 11:22:09;;;;;;;2.45;1.90;;;;;;;;;;4999826;28;20113;-78
2022/07/25 11:24:39;;;;;;;2.50;1.80;;;;;;;;;;5001732;28;20110;-80
2022/07/25 11:27:04;;;;;;;2.45;1.92;;;;;;;;;;4977237;28;20034;-82
2022/07/25 11:29:30;;;;;;;3.05;1.73;;;;;;;;;;4994773;28;20481;-78
2022/07/25 11:31:56;;;;;;;2.38;1.52;;;;;;;;;;4961122;28;20035;-78
2022/07/25 11:34:23;;;;;;;2.33;1.60;;;;;;;;;;4992381;28;20421;-78
2022/07/25 11:36:49;;;;;;;4.38;1.60;;;;;;;;;;4993209;28;20069;-79
2022/07/25 11:39:16;;;;;;;3.75;1.98;;;;;;;;;;4974589;28;20489;-78
2022/07/25 11:41:41;;;;;;;2.53;1.55;;;;;;;;;;4974088;28;20031;-79
2022/07/25 11:44:08;;;;;;;3.08;1.70;;;;;;;;;;4988578;28;20037;-83
2022/07/25 11:46:43;;;;;;;2.35;1.85;;;;;;;;;;4974104;28;20035;-79
2022/07/25 11:49:08;;;;;;;2.83;1.80;;;;;;;;;;4972548;28;20409;-78
2022/07/25 11:51:37;;;;;;;3.03;1.60;;;;;;;;;;4973984;28;20034;-83
2022/07/25 11:54:09;;;;;;;2.50;1.77;;;;;;;;;;4982262;28;20510;-78
2022/07/25 11:56:38;;;;;;;3.80;1.65;;;;;;;;;;4977582;28;20035;-79
2022/07/25 11:59:03;;;;;;;2.00;1.50;;;;;;;;;;4994632;28;20018;-79
2022/07/25 12:01:32;;;;;;;4.18;1.75;;;;;;;;;;4974155;28;20391;-80
2022/07/25 12:04:06;;;;;;;4.80;1.77;;;;;;;;;;4987270;28;20053;-78
2022/07/25 12:06:32;;;;;;;2.97;1.73;;;;;;;;;;4993146;28;20037;-78
2022/07/25 12:08:57;;;;;;;2.05;1.75;;;;;;;;;;4961580;28;20034;-78
2022/07/25 12:11:23;;;;;;;3.65;1.90;;;;;;;;;;4993076;28;20035;-78
2022/07/25 12:13:48;;;;;;;3.53;2.10;;;;;;;;;;4974544;28;20022;-78
2022/07/25 12:16:14;;;;;;;2.97;2.08;;;;;;;;;;4981874;28;20034;-81
2022/07/25 12:18:40;;;;;;;3.72;1.75;;;;;;;;;;4978036;28;20026;-81
2022/07/25 12:21:05;;;;;;;4.32;1.92;;;;;;;;;;4974117;28;20101;-76
2022/07/25 12:23:31;;;;;;;3.85;1.80;;;;;;;;;;5004955;28;20033;-78
2022/07/25 12:25:56;;;;;;;3.50;2.03;;;;;;;;;;4991811;28;20038;-77
2022/07/25 12:28:21;;;;;;;2.83;1.90;;;;;;;;;;4993371;28;20585;-80
2022/07/25 12:30:48;;;;;;;3.75;2.50;;;;;;;;;;4993199;28;20034;-78
2022/07/25 12:33:13;;;;;;;2.90;1.73;;;;;;;;;;4972766;28;20054;-79
2022/07/25 12:35:39;;;;;;;2.75;1.80;;;;;;;;;;4983978;28;20091;-81
2022/07/25 12:38:05;;;;;;;2.58;1.90;;;;;;;;;;4985893;28;20138;-80
2022/07/25 12:40:30;;;;;;;1.75;1.50;;;;;;;;;;4967288;28;20045;-76
2022/07/25 12:42:57;;;;;;;2.70;1.60;;;;;;;;;;4975686;28;20551;-78
2022/07/25 12:45:23;;;;;;;2.25;1.73;;;;;;;;;;5002634;28;20128;-77
2022/07/25 12:47:48;;;;;;;2.08;1.58;;;;;;;;;;4985582;28;20068;-77
2022/07/25 12:50:14;;;;;;;3.00;1.75;;;;;;;;;;5012908;28;20042;-78
2022/07/25 12:52:40;;;;;;;2.25;1.60;;;;;;;;;;4961896;28;20050;-82
2022/07/25 12:55:06;;;;;;;1.92;1.42;;;;;;;;;;4992527;28;20042;-77
2022/07/25 12:57:31;;;;;;;1.92;1.40;;;;;;;;;;4991499;28;20372;-79
2022/07/25 12:59:57;;;;;;;3.42;1.70;;;;;;;;;;4986085;28;20037;-78
2022/07/25 13:02:22;;;;;;;2.80;1.65;;;;;;;;;;4994092;28;20021;-79
2022/07/25 13:04:48;;;;;;;2.47;1.60;;;;;;;;;;4996540;28;20041;-79
2022/07/25 13:07:14;;;;;;;2.25;1.77;;;;;;;;;;5015478;28;20026;-78
2022/07/25 13:09:40;;;;;;;2.20;1.65;;;;;;;;;;5014462;28;20073;-77
2022/07/25 13:12:06;;;;;;;3.22;1.30;;;;;;;;;;4998320;28;20049;-77
2022/07/25 13:14:33;;;;;;;1.90;1.38;;;;;;;;;;5016368;28;20033;-81
2022/07/25 13:16:59;;;;;;;2.42;1.38;;;;;;;;;;5015557;28;20021;-80
2022/07/25 13:19:24;;;;;;;2.15;1.48;;;;;;;;;;4988443;28;20045;-79
2022/07/25 13:21:50;;;;;;;2.20;1.50;;;;;;;;;;4995511;28;20396;-78
2022/07/25 13:24:15;;;;;;;3.05;1.38;;;;;;;;;;5006043;28;20038;-78
2022/07/25 13:26:40;;;;;;;6.30;1.98;;;;;;;;;;4978866;28;20120;-78
2022/07/25 13:29:10;;;;;;;2.45;1.50;;;;;;;;;;4995464;28;20049;-78
2022/07/25 13:31:39;;;;;;;3.25;1.65;;;;;;;;;;4995696;28;20029;-77
2022/07/25 13:34:05;;;;;;;1.85;1.30;;;;;;;;;;5015856;28;20049;-78
2022/07/25 13:36:34;;;;;;;1.80;1.23;;;;;;;;;;4997796;28;20026;-79
2022/07/25 13:38:59;;;;;;;3.10;2.00;;;;;;;;;;4997868;28;20030;-77
2022/07/25 13:41:25;;;;;;;3.38;1.90;;;;;;;;;;5013685;28;20399;-77
2022/07/25 13:43:50;;;;;;;2.13;1.70;;;;;;;;;;4981803;28;20045;-78
2022/07/25 13:46:16;;;;;;;3.45;1.50;;;;;;;;;;4997492;28;20036;-77
2022/07/25 13:48:41;;;;;;;2.22;1.52;;;;;;;;;;4965789;28;20432;-80
2022/07/25 13:51:07;;;;;;;2.17;1.50;;;;;;;;;;4996481;28;20495;-78
2022/07/25 13:53:32;;;;;;;2.47;1.15;;;;;;;;;;4965270;28;20584;-81
2022/07/25 13:55:58;;;;;;;4.03;1.50;;;;;;;;;;4996328;28;20053;-81
2022/07/25 13:58:23;;;;;;;3.58;1.63;;;;;;;;;;4997435;28;20484;-79
2022/07/25 14:00:49;;;;;;;2.70;1.50;;;;;;;;;;4996366;28;20121;-82
2022/07/25 14:03:15;;;;;;;2.78;1.33;;;;;;;;;;4996852;28;20083;-77
2022/07/25 14:05:40;;;;;;;1.65;1.20;;;;;;;;;;5013506;28;20075;-78
2022/07/25 14:08:06;;;;;;;2.92;1.30;;;;;;;;;;5014127;28;20471;-80
2022/07/25 14:10:31;;;;;;;1.90;1.30;;;;;;;;;;4994925;28;20523;-79
2022/07/25 14:12:57;;;;;;;1.90;1.20;;;;;;;;;;4980278;28;20128;-79
2022/07/25 14:15:23;;;;;;;2.15;1.30;;;;;;;;;;4961714;28;20022;-77
2022/07/25 14:17:48;;;;;;;5.68;1.63;;;;;;;;;;5012941;28;20045;-77
2022/07/25 14:20:13;;;;;;;2.55;1.60;;;;;;;;;;4995217;28;20029;-77
2022/07/25 14:22:40;;;;;;;3.40;1.60;;;;;;;;;;4996953;28;20030;-79
2022/07/25 14:25:06;;;;;;;2.80;1.77;;;;;;;;;;4980970;28;20030;-79
2022/07/25 14:27:32;;;;;;;3.13;2.08;;;;;;;;;;4994439;28;20066;-77
2022/07/25 14:29:57;;;;;;;4.18;1.58;;;;;;;;;;4995591;28;20074;-77
2022/07/25 14:32:23;;;;;;;2.55;1.63;;;;;;;;;;5004287;28;20064;-78
2022/07/25 14:34:49;;;;;;;2.63;1.60;;;;;;;;;;5014721;28;20030;-78
2022/07/25 14:37:15;;;;;;;2.00;1.30;;;;;;;;;;5013486;28;20038;-78
2022/07/25 14:39:40;;;;;;;2.95;1.42;;;;;;;;;;5012742;28;20113;-79